sensor_id;sensor_type;location;lat;lon;timestamp;temperature;humidity
47825;DHT22;33589;48.242;14.676;2023-11-19T00:02:23;9.20;99.90
47825;DHT22;33589;48.242;14.676;2023-11-19T00:04:49;9.10;99.90
47825;DHT22;33589;48.242;14.676;2023-11-19T00:07:15;8.80;99.90
47825;DHT22;33589;48.242;14.676;2023-11-19T00:09:41;8.80;99.90
47825;DHT22;33589;48.242;14.676;2023-11-19T00:12:09;9.10;92.80
47825;DHT22;33589;48.242;14.676;2023-11-19T00:17:01;9.50;99.90
47825;DHT22;33589;48.242;14.676;2023-11-19T00:19:26;9.20;99.90
47825;DHT22;33589;48.242;14.676;2023-11-19T00:21:52;9.30;99.90
47825;DHT22;33589;48.242;14.676;2023-11-19T00:24:18;9.00;99.90
47825;DHT22;33589;48.242;14.676;2023-11-19T00:26:44;9.00;99.90
47825;DHT22;33589;48.242;14.676;2023-11-19T00:29:10;9.10;99.90
47825;DHT22;33589;48.242;14.676;2023-11-19T00:31:36;9.00;99.90
47825;DHT22;33589;48.242;14.676;2023-11-19T00:34:02;9.40;99.90
47825;DHT22;33589;48.242;14.676;2023-11-19T00:36:28;9.30;99.90
47825;DHT22;33589;48.242;14.676;2023-11-19T00:38:54;9.60;99.90
47825;DHT22;33589;48.242;14.676;2023-11-19T00:41:20;9.30;91.00
47825;DHT22;33589;48.242;14.676;2023-11-19T00:43:46;9.20;99.90
47825;DHT22;33589;48.242;14.676;2023-11-19T00:46:12;9.40;99.90
47825;DHT22;33589;48.242;14.676;2023-11-19T00:48:39;9.20;99.50
47825;DHT22;33589;48.242;14.676;2023-11-19T00:51:06;9.40;99.60
47825;DHT22;33589;48.242;14.676;2023-11-19T00:53:32;9.10;98.10
47825;DHT22;33589;48.242;14.676;2023-11-19T00:56:00;9.40;95.80
47825;DHT22;33589;48.242;14.676;2023-11-19T00:58:26;9.60;99.40
47825;DHT22;33589;48.242;14.676;2023-11-19T01:00:52;9.40;99.40
47825;DHT22;33589;48.242;14.676;2023-11-19T01:03:18;9.40;99.20
47825;DHT22;33589;48.242;14.676;2023-11-19T01:05:44;9.30;99.10
47825;DHT22;33589;48.242;14.676;2023-11-19T01:08:10;9.50;99.00
47825;DHT22;33589;48.242;14.676;2023-11-19T01:10:39;9.40;99.20
47825;DHT22;33589;48.242;14.676;2023-11-19T01:15:32;9.50;90.00
47825;DHT22;33589;48.242;14.676;2023-11-19T01:17:58;9.40;99.30
47825;DHT22;33589;48.242;14.676;2023-11-19T01:20:24;9.50;99.40
47825;DHT22;33589;48.242;14.676;2023-11-19T01:22:50;9.50;99.40
47825;DHT22;33589;48.242;14.676;2023-11-19T01:25:16;10.00;99.30
47825;DHT22;33589;48.242;14.676;2023-11-19T01:27:44;9.30;99.50
47825;DHT22;33589;48.242;14.676;2023-11-19T01:30:10;9.70;99.60
47825;DHT22;33589;48.242;14.676;2023-11-19T01:32:38;9.40;99.80
47825;DHT22;33589;48.242;14.676;2023-11-19T01:35:04;9.70;99.90
47825;DHT22;33589;48.242;14.676;2023-11-19T01:37:30;9.30;99.60
47825;DHT22;33589;48.242;14.676;2023-11-19T01:39:57;9.70;99.90
47825;DHT22;33589;48.242;14.676;2023-11-19T01:42:23;9.10;99.90
47825;DHT22;33589;48.242;14.676;2023-11-19T01:44:59;9.70;99.90
47825;DHT22;33589;48.242;14.676;2023-11-19T01:47:30;9.60;99.90
47825;DHT22;33589;48.242;14.676;2023-11-19T01:49:56;9.20;99.90
47825;DHT22;33589;48.242;14.676;2023-11-19T01:52:23;9.40;99.90
47825;DHT22;33589;48.242;14.676;2023-11-19T01:54:52;9.30;99.90
47825;DHT22;33589;48.242;14.676;2023-11-19T01:57:20;9.10;99.90
47825;DHT22;33589;48.242;14.676;2023-11-19T01:59:52;9.60;99.90
47825;DHT22;33589;48.242;14.676;2023-11-19T02:02:18;9.70;99.90
47825;DHT22;33589;48.242;14.676;2023-11-19T02:04:49;9.30;99.90
47825;DHT22;33589;48.242;14.676;2023-11-19T02:09:43;9.00;99.90
47825;DHT22;33589;48.242;14.676;2023-11-19T02:12:10;9.80;99.90
47825;DHT22;33589;48.242;14.676;2023-11-19T02:14:37;9.90;99.90
47825;DHT22;33589;48.242;14.676;2023-11-19T02:17:03;9.60;94.20
47825;DHT22;33589;48.242;14.676;2023-11-19T02:19:30;9.60;99.90
47825;DHT22;33589;48.242;14.676;2023-11-19T02:24:22;10.00;99.50
47825;DHT22;33589;48.242;14.676;2023-11-19T02:27:05;9.80;99.90
47825;DHT22;33589;48.242;14.676;2023-11-19T02:29:32;9.50;99.70
47825;DHT22;33589;48.242;14.676;2023-11-19T02:32:00;9.70;99.90
47825;DHT22;33589;48.242;14.676;2023-11-19T02:34:28;10.20;99.90
47825;DHT22;33589;48.242;14.676;2023-11-19T02:36:54;9.60;99.90
47825;DHT22;33589;48.242;14.676;2023-11-19T02:39:20;9.80;99.90
47825;DHT22;33589;48.242;14.676;2023-11-19T02:41:47;10.20;99.90
47825;DHT22;33589;48.242;14.676;2023-11-19T02:44:16;9.80;99.90
47825;DHT22;33589;48.242;14.676;2023-11-19T02:46:42;10.10;99.90
47825;DHT22;33589;48.242;14.676;2023-11-19T02:49:08;10.00;99.90
47825;DHT22;33589;48.242;14.676;2023-11-19T02:51:34;10.20;94.70
47825;DHT22;33589;48.242;14.676;2023-11-19T02:54:04;9.80;99.90
47825;DHT22;33589;48.242;14.676;2023-11-19T02:56:30;10.10;99.90
47825;DHT22;33589;48.242;14.676;2023-11-19T02:59:00;9.80;99.90
47825;DHT22;33589;48.242;14.676;2023-11-19T03:01:34;9.90;99.90
47825;DHT22;33589;48.242;14.676;2023-11-19T03:04:01;10.00;99.90
47825;DHT22;33589;48.242;14.676;2023-11-19T03:06:28;9.80;99.90
47825;DHT22;33589;48.242;14.676;2023-11-19T03:08:54;9.70;99.90
47825;DHT22;33589;48.242;14.676;2023-11-19T03:11:21;9.70;99.90
47825;DHT22;33589;48.242;14.676;2023-11-19T03:13:46;9.60;99.90
47825;DHT22;33589;48.242;14.676;2023-11-19T03:16:13;9.80;99.90
47825;DHT22;33589;48.242;14.676;2023-11-19T03:18:39;9.70;99.90
47825;DHT22;33589;48.242;14.676;2023-11-19T03:21:08;9.80;99.90
47825;DHT22;33589;48.242;14.676;2023-11-19T03:23:34;9.70;99.90
47825;DHT22;33589;48.242;14.676;2023-11-19T03:26:01;9.60;99.90
47825;DHT22;33589;48.242;14.676;2023-11-19T03:28:31;9.90;99.90
47825;DHT22;33589;48.242;14.676;2023-11-19T03:30:57;9.60;99.90
47825;DHT22;33589;48.242;14.676;2023-11-19T03:33:22;10.10;99.90
47825;DHT22;33589;48.242;14.676;2023-11-19T03:35:48;9.90;99.90
47825;DHT22;33589;48.242;14.676;2023-11-19T03:38:14;9.50;99.90
47825;DHT22;33589;48.242;14.676;2023-11-19T03:40:40;9.60;99.90
47825;DHT22;33589;48.242;14.676;2023-11-19T03:43:06;9.70;99.90
47825;DHT22;33589;48.242;14.676;2023-11-19T03:45:32;9.80;92.40
47825;DHT22;33589;48.242;14.676;2023-11-19T03:47:57;10.10;99.90
47825;DHT22;33589;48.242;14.676;2023-11-19T03:50:23;9.90;99.90
47825;DHT22;33589;48.242;14.676;2023-11-19T03:52:49;9.80;99.90
47825;DHT22;33589;48.242;14.676;2023-11-19T03:55:15;9.70;99.90
47825;DHT22;33589;48.242;14.676;2023-11-19T03:57:41;9.60;99.90
47825;DHT22;33589;48.242;14.676;2023-11-19T04:02:40;9.80;99.90
47825;DHT22;33589;48.242;14.676;2023-11-19T04:05:06;9.80;99.90
47825;DHT22;33589;48.242;14.676;2023-11-19T04:07:32;10.20;99.90
47825;DHT22;33589;48.242;14.676;2023-11-19T04:09:58;9.90;96.40
47825;DHT22;33589;48.242;14.676;2023-11-19T04:12:24;9.90;93.40
47825;DHT22;33589;48.242;14.676;2023-11-19T04:14:50;10.00;99.90
47825;DHT22;33589;48.242;14.676;2023-11-19T04:17:17;9.90;99.90
47825;DHT22;33589;48.242;14.676;2023-11-19T04:22:09;10.10;99.90
47825;DHT22;33589;48.242;14.676;2023-11-19T04:24:35;10.20;99.90
47825;DHT22;33589;48.242;14.676;2023-11-19T04:27:01;10.10;99.90
47825;DHT22;33589;48.242;14.676;2023-11-19T04:29:26;10.30;99.90
47825;DHT22;33589;48.242;14.676;2023-11-19T04:31:53;9.90;99.90
47825;DHT22;33589;48.242;14.676;2023-11-19T04:34:18;9.90;99.90
47825;DHT22;33589;48.242;14.676;2023-11-19T04:36:44;10.00;99.90
47825;DHT22;33589;48.242;14.676;2023-11-19T04:39:10;10.10;93.60
47825;DHT22;33589;48.242;14.676;2023-11-19T04:41:49;10.20;99.90
47825;DHT22;33589;48.242;14.676;2023-11-19T04:44:19;10.20;94.00
47825;DHT22;33589;48.242;14.676;2023-11-19T04:46:44;10.40;99.90
47825;DHT22;33589;48.242;14.676;2023-11-19T04:49:12;10.60;99.90
47825;DHT22;33589;48.242;14.676;2023-11-19T04:51:41;10.20;99.90
47825;DHT22;33589;48.242;14.676;2023-11-19T04:54:11;10.30;99.90
47825;DHT22;33589;48.242;14.676;2023-11-19T04:56:37;10.40;99.90
47825;DHT22;33589;48.242;14.676;2023-11-19T04:59:03;10.70;99.90
47825;DHT22;33589;48.242;14.676;2023-11-19T05:01:31;10.50;99.90
47825;DHT22;33589;48.242;14.676;2023-11-19T05:03:57;10.60;99.90
47825;DHT22;33589;48.242;14.676;2023-11-19T05:06:29;10.60;99.90
47825;DHT22;33589;48.242;14.676;2023-11-19T05:08:56;10.30;99.90
47825;DHT22;33589;48.242;14.676;2023-11-19T05:11:22;10.20;99.90
47825;DHT22;33589;48.242;14.676;2023-11-19T05:13:48;10.40;94.60
47825;DHT22;33589;48.242;14.676;2023-11-19T05:16:14;10.40;94.50
47825;DHT22;33589;48.242;14.676;2023-11-19T05:18:41;10.60;99.90
47825;DHT22;33589;48.242;14.676;2023-11-19T05:23:33;10.50;94.80
47825;DHT22;33589;48.242;14.676;2023-11-19T05:26:02;10.40;99.90
47825;DHT22;33589;48.242;14.676;2023-11-19T05:28:28;10.60;95.20
47825;DHT22;33589;48.242;14.676;2023-11-19T05:30:54;10.50;99.90
47825;DHT22;33589;48.242;14.676;2023-11-19T05:33:20;10.70;99.90
47825;DHT22;33589;48.242;14.676;2023-11-19T05:35:46;10.10;99.90
47825;DHT22;33589;48.242;14.676;2023-11-19T05:40:38;10.50;99.90
47825;DHT22;33589;48.242;14.676;2023-11-19T05:43:05;10.50;96.20
47825;DHT22;33589;48.242;14.676;2023-11-19T05:45:32;10.50;96.40
47825;DHT22;33589;48.242;14.676;2023-11-19T05:47:57;10.30;99.90
47825;DHT22;33589;48.242;14.676;2023-11-19T05:50:23;10.40;96.90
47825;DHT22;33589;48.242;14.676;2023-11-19T05:52:49;10.40;97.10
47825;DHT22;33589;48.242;14.676;2023-11-19T05:55:15;10.70;99.90
47825;DHT22;33589;48.242;14.676;2023-11-19T05:57:41;10.80;99.90
47825;DHT22;33589;48.242;14.676;2023-11-19T06:00:07;10.80;99.90
47825;DHT22;33589;48.242;14.676;2023-11-19T06:02:37;10.70;99.90
47825;DHT22;33589;48.242;14.676;2023-11-19T06:05:06;10.80;99.90
47825;DHT22;33589;48.242;14.676;2023-11-19T06:07:34;11.00;99.90
47825;DHT22;33589;48.242;14.676;2023-11-19T06:10:02;10.70;99.90
47825;DHT22;33589;48.242;14.676;2023-11-19T06:12:30;10.90;99.90
47825;DHT22;33589;48.242;14.676;2023-11-19T06:14:57;10.70;96.90
47825;DHT22;33589;48.242;14.676;2023-11-19T06:17:23;10.80;96.80
47825;DHT22;33589;48.242;14.676;2023-11-19T06:19:48;10.70;99.90
47825;DHT22;33589;48.242;14.676;2023-11-19T06:22:14;11.00;99.90
47825;DHT22;33589;48.242;14.676;2023-11-19T06:24:39;10.80;96.80
47825;DHT22;33589;48.242;14.676;2023-11-19T06:27:05;11.10;99.90
47825;DHT22;33589;48.242;14.676;2023-11-19T06:29:31;10.70;99.90
47825;DHT22;33589;48.242;14.676;2023-11-19T06:31:56;11.10;99.90
47825;DHT22;33589;48.242;14.676;2023-11-19T06:34:22;10.90;99.90
47825;DHT22;33589;48.242;14.676;2023-11-19T06:36:48;11.10;99.90
47825;DHT22;33589;48.242;14.676;2023-11-19T06:39:14;10.60;99.90
47825;DHT22;33589;48.242;14.676;2023-11-19T06:41:44;10.60;99.90
47825;DHT22;33589;48.242;14.676;2023-11-19T06:44:10;10.80;97.00
47825;DHT22;33589;48.242;14.676;2023-11-19T06:49:02;11.40;99.90
47825;DHT22;33589;48.242;14.676;2023-11-19T06:51:28;10.90;97.20
47825;DHT22;33589;48.242;14.676;2023-11-19T06:53:55;11.20;99.90
47825;DHT22;33589;48.242;14.676;2023-11-19T06:56:22;10.70;99.90
47825;DHT22;33589;48.242;14.676;2023-11-19T06:58:49;11.20;99.90
47825;DHT22;33589;48.242;14.676;2023-11-19T07:01:18;11.20;99.90
47825;DHT22;33589;48.242;14.676;2023-11-19T07:03:45;10.80;99.90
47825;DHT22;33589;48.242;14.676;2023-11-19T07:06:11;10.80;99.90
47825;DHT22;33589;48.242;14.676;2023-11-19T07:08:40;11.30;99.90
47825;DHT22;33589;48.242;14.676;2023-11-19T07:11:06;11.10;99.90
47825;DHT22;33589;48.242;14.676;2023-11-19T07:13:32;10.70;99.90
47825;DHT22;33589;48.242;14.676;2023-11-19T07:15:57;10.90;99.90
47825;DHT22;33589;48.242;14.676;2023-11-19T07:18:24;11.00;99.90
47825;DHT22;33589;48.242;14.676;2023-11-19T07:20:50;11.20;97.30
47825;DHT22;33589;48.242;14.676;2023-11-19T07:23:15;10.70;99.90
47825;DHT22;33589;48.242;14.676;2023-11-19T07:25:44;11.60;99.90
47825;DHT22;33589;48.242;14.676;2023-11-19T07:28:13;11.30;98.60
47825;DHT22;33589;48.242;14.676;2023-11-19T07:30:38;11.10;99.90
47825;DHT22;33589;48.242;14.676;2023-11-19T07:33:04;12.20;99.30
47825;DHT22;33589;48.242;14.676;2023-11-19T07:35:31;10.90;99.90
47825;DHT22;33589;48.242;14.676;2023-11-19T07:37:57;11.10;99.90
47825;DHT22;33589;48.242;14.676;2023-11-19T07:40:23;11.00;99.90
47825;DHT22;33589;48.242;14.676;2023-11-19T07:42:49;11.30;99.90
47825;DHT22;33589;48.242;14.676;2023-11-19T07:45:16;11.00;99.90
47825;DHT22;33589;48.242;14.676;2023-11-19T07:47:42;11.30;99.90
47825;DHT22;33589;48.242;14.676;2023-11-19T07:50:10;11.40;99.90
47825;DHT22;33589;48.242;14.676;2023-11-19T07:52:38;11.00;99.90
47825;DHT22;33589;48.242;14.676;2023-11-19T07:55:04;11.30;98.20
47825;DHT22;33589;48.242;14.676;2023-11-19T07:57:30;11.60;99.90
47825;DHT22;33589;48.242;14.676;2023-11-19T07:59:57;11.40;98.30
47825;DHT22;33589;48.242;14.676;2023-11-19T08:02:23;11.60;99.90
47825;DHT22;33589;48.242;14.676;2023-11-19T08:04:49;11.20;99.90
47825;DHT22;33589;48.242;14.676;2023-11-19T08:07:20;11.40;98.20
47825;DHT22;33589;48.242;14.676;2023-11-19T08:09:46;11.60;99.90
47825;DHT22;33589;48.242;14.676;2023-11-19T08:12:11;11.50;99.90
47825;DHT22;33589;48.242;14.676;2023-11-19T08:14:39;11.10;99.90
47825;DHT22;33589;48.242;14.676;2023-11-19T08:17:05;11.50;99.90
47825;DHT22;33589;48.242;14.676;2023-11-19T08:19:30;11.70;99.90
47825;DHT22;33589;48.242;14.676;2023-11-19T08:21:56;11.30;99.90
47825;DHT22;33589;48.242;14.676;2023-11-19T08:24:22;11.50;99.90
47825;DHT22;33589;48.242;14.676;2023-11-19T08:26:48;11.90;99.90
47825;DHT22;33589;48.242;14.676;2023-11-19T08:29:14;11.60;99.90
47825;DHT22;33589;48.242;14.676;2023-11-19T08:34:06;11.40;99.90
47825;DHT22;33589;48.242;14.676;2023-11-19T08:36:35;11.40;99.90
47825;DHT22;33589;48.242;14.676;2023-11-19T08:39:00;11.50;99.90
47825;DHT22;33589;48.242;14.676;2023-11-19T08:41:26;11.40;99.90
47825;DHT22;33589;48.242;14.676;2023-11-19T08:43:52;11.70;99.90
47825;DHT22;33589;48.242;14.676;2023-11-19T08:46:18;11.40;99.90
47825;DHT22;33589;48.242;14.676;2023-11-19T08:48:44;11.20;99.90
47825;DHT22;33589;48.242;14.676;2023-11-19T08:51:10;11.50;99.90
47825;DHT22;33589;48.242;14.676;2023-11-19T08:53:36;11.30;99.90
47825;DHT22;33589;48.242;14.676;2023-11-19T08:56:02;11.40;99.90
47825;DHT22;33589;48.242;14.676;2023-11-19T08:58:28;11.80;99.90
47825;DHT22;33589;48.242;14.676;2023-11-19T09:00:54;11.20;99.90
47825;DHT22;33589;48.242;14.676;2023-11-19T09:03:20;11.50;99.90
47825;DHT22;33589;48.242;14.676;2023-11-19T09:05:46;11.50;99.90
47825;DHT22;33589;48.242;14.676;2023-11-19T09:08:12;11.60;99.90
47825;DHT22;33589;48.242;14.676;2023-11-19T09:10:38;11.40;99.90
47825;DHT22;33589;48.242;14.676;2023-11-19T09:13:03;11.60;99.90
47825;DHT22;33589;48.242;14.676;2023-11-19T09:15:29;11.60;99.90
47825;DHT22;33589;48.242;14.676;2023-11-19T09:17:55;11.40;99.90
47825;DHT22;33589;48.242;14.676;2023-11-19T09:20:21;11.30;99.90
47825;DHT22;33589;48.242;14.676;2023-11-19T09:22:47;11.30;99.90
47825;DHT22;33589;48.242;14.676;2023-11-19T09:25:13;11.40;99.90
47825;DHT22;33589;48.242;14.676;2023-11-19T09:27:43;12.00;99.90
47825;DHT22;33589;48.242;14.676;2023-11-19T09:30:09;11.80;99.90
47825;DHT22;33589;48.242;14.676;2023-11-19T09:32:35;12.10;99.90
47825;DHT22;33589;48.242;14.676;2023-11-19T09:35:01;12.20;99.90
47825;DHT22;33589;48.242;14.676;2023-11-19T09:37:28;11.50;99.90
47825;DHT22;33589;48.242;14.676;2023-11-19T09:39:53;12.20;99.90
47825;DHT22;33589;48.242;14.676;2023-11-19T09:42:19;12.00;99.90
47825;DHT22;33589;48.242;14.676;2023-11-19T09:44:47;12.50;99.90
47825;DHT22;33589;48.242;14.676;2023-11-19T09:47:14;11.90;99.90
47825;DHT22;33589;48.242;14.676;2023-11-19T09:49:40;12.40;99.90
47825;DHT22;33589;48.242;14.676;2023-11-19T09:52:06;12.10;99.90
47825;DHT22;33589;48.242;14.676;2023-11-19T09:54:32;11.90;99.90
47825;DHT22;33589;48.242;14.676;2023-11-19T09:56:58;12.00;99.90
47825;DHT22;33589;48.242;14.676;2023-11-19T09:59:32;12.00;99.90
47825;DHT22;33589;48.242;14.676;2023-11-19T10:01:59;12.10;99.90
47825;DHT22;33589;48.242;14.676;2023-11-19T10:04:25;11.70;99.90
47825;DHT22;33589;48.242;14.676;2023-11-19T10:06:54;12.10;99.90
47825;DHT22;33589;48.242;14.676;2023-11-19T10:09:20;11.80;99.90
47825;DHT22;33589;48.242;14.676;2023-11-19T10:11:46;12.10;99.90
47825;DHT22;33589;48.242;14.676;2023-11-19T10:14:13;12.10;99.90
47825;DHT22;33589;48.242;14.676;2023-11-19T10:16:40;12.10;99.90
47825;DHT22;33589;48.242;14.676;2023-11-19T10:19:06;12.20;99.90
47825;DHT22;33589;48.242;14.676;2023-11-19T10:21:35;12.20;99.90
47825;DHT22;33589;48.242;14.676;2023-11-19T10:24:00;12.00;99.90
47825;DHT22;33589;48.242;14.676;2023-11-19T10:26:27;12.00;99.90
47825;DHT22;33589;48.242;14.676;2023-11-19T10:28:53;11.80;99.90
47825;DHT22;33589;48.242;14.676;2023-11-19T10:31:20;12.10;99.90
47825;DHT22;33589;48.242;14.676;2023-11-19T10:33:50;11.90;99.90
47825;DHT22;33589;48.242;14.676;2023-11-19T10:36:16;11.90;99.90
47825;DHT22;33589;48.242;14.676;2023-11-19T10:38:56;12.40;99.90
47825;DHT22;33589;48.242;14.676;2023-11-19T10:41:32;11.90;99.90
47825;DHT22;33589;48.242;14.676;2023-11-19T10:43:58;12.20;99.90
47825;DHT22;33589;48.242;14.676;2023-11-19T10:46:40;12.20;99.90
47825;DHT22;33589;48.242;14.676;2023-11-19T10:49:06;12.20;99.90
47825;DHT22;33589;48.242;14.676;2023-11-19T10:51:32;12.20;99.90
47825;DHT22;33589;48.242;14.676;2023-11-19T10:54:04;12.30;99.90
47825;DHT22;33589;48.242;14.676;2023-11-19T10:56:32;12.20;99.90
47825;DHT22;33589;48.242;14.676;2023-11-19T10:59:00;12.70;99.90
47825;DHT22;33589;48.242;14.676;2023-11-19T11:01:39;12.90;99.90
47825;DHT22;33589;48.242;14.676;2023-11-19T11:04:24;12.30;99.90
47825;DHT22;33589;48.242;14.676;2023-11-19T11:06:54;12.80;99.90
47825;DHT22;33589;48.242;14.676;2023-11-19T11:09:21;12.80;99.90
47825;DHT22;33589;48.242;14.676;2023-11-19T11:11:50;12.90;99.90
47825;DHT22;33589;48.242;14.676;2023-11-19T11:14:18;13.40;99.90
47825;DHT22;33589;48.242;14.676;2023-11-19T11:16:46;13.10;99.90
47825;DHT22;33589;48.242;14.676;2023-11-19T11:19:15;13.60;99.90
47825;DHT22;33589;48.242;14.676;2023-11-19T11:21:44;13.20;99.90
47825;DHT22;33589;48.242;14.676;2023-11-19T11:38:04;13.00;99.90
47825;DHT22;33589;48.242;14.676;2023-11-19T11:40:29;12.60;99.90
47825;DHT22;33589;48.242;14.676;2023-11-19T11:42:56;12.90;99.90
47825;DHT22;33589;48.242;14.676;2023-11-19T11:45:38;12.70;99.90
47825;DHT22;33589;48.242;14.676;2023-11-19T11:48:10;13.30;99.90
47825;DHT22;33589;48.242;14.676;2023-11-19T11:50:56;13.00;99.90
47825;DHT22;33589;48.242;14.676;2023-11-19T11:53:24;13.20;99.90
47825;DHT22;33589;48.242;14.676;2023-11-19T11:58:27;13.00;99.90
47825;DHT22;33589;48.242;14.676;2023-11-19T12:00:57;13.10;99.90
47825;DHT22;33589;48.242;14.676;2023-11-19T12:03:24;13.20;99.90
47825;DHT22;33589;48.242;14.676;2023-11-19T12:05:52;13.00;99.90
47825;DHT22;33589;48.242;14.676;2023-11-19T12:08:20;13.20;99.90
47825;DHT22;33589;48.242;14.676;2023-11-19T12:10:51;13.50;99.90
47825;DHT22;33589;48.242;14.676;2023-11-19T12:13:19;13.20;99.90
47825;DHT22;33589;48.242;14.676;2023-11-19T12:18:26;13.10;99.90
47825;DHT22;33589;48.242;14.676;2023-11-19T12:20:52;13.30;99.90
47825;DHT22;33589;48.242;14.676;2023-11-19T12:23:18;13.00;99.90
47825;DHT22;33589;48.242;14.676;2023-11-19T12:25:44;13.60;99.90
47825;DHT22;33589;48.242;14.676;2023-11-19T12:28:15;13.60;99.90
47825;DHT22;33589;48.242;14.676;2023-11-19T12:30:45;13.00;99.90
47825;DHT22;33589;48.242;14.676;2023-11-19T12:33:12;13.30;99.90
47825;DHT22;33589;48.242;14.676;2023-11-19T12:35:39;13.40;99.90
47825;DHT22;33589;48.242;14.676;2023-11-19T12:38:05;13.60;99.90
47825;DHT22;33589;48.242;14.676;2023-11-19T12:40:31;13.30;99.90
47825;DHT22;33589;48.242;14.676;2023-11-19T12:42:57;13.50;99.90
47825;DHT22;33589;48.242;14.676;2023-11-19T12:45:24;13.80;99.90
47825;DHT22;33589;48.242;14.676;2023-11-19T12:48:07;14.00;99.90
47825;DHT22;33589;48.242;14.676;2023-11-19T12:50:52;14.10;99.90
47825;DHT22;33589;48.242;14.676;2023-11-19T12:53:21;13.80;99.90
47825;DHT22;33589;48.242;14.676;2023-11-19T12:58:33;13.20;99.90
47825;DHT22;33589;48.242;14.676;2023-11-19T13:01:06;13.40;99.90
47825;DHT22;33589;48.242;14.676;2023-11-19T13:03:32;13.80;99.90
47825;DHT22;33589;48.242;14.676;2023-11-19T13:06:05;13.40;99.90
47825;DHT22;33589;48.242;14.676;2023-11-19T13:08:46;13.10;99.90
47825;DHT22;33589;48.242;14.676;2023-11-19T13:11:14;13.60;99.90
47825;DHT22;33589;48.242;14.676;2023-11-19T13:14:00;13.60;99.90
47825;DHT22;33589;48.242;14.676;2023-11-19T13:16:27;13.80;99.90
47825;DHT22;33589;48.242;14.676;2023-11-19T13:18:53;13.70;99.90
47825;DHT22;33589;48.242;14.676;2023-11-19T13:21:19;14.10;99.90
47825;DHT22;33589;48.242;14.676;2023-11-19T13:23:44;14.20;99.90
47825;DHT22;33589;48.242;14.676;2023-11-19T13:26:11;13.60;99.90
47825;DHT22;33589;48.242;14.676;2023-11-19T13:28:37;13.80;99.90
47825;DHT22;33589;48.242;14.676;2023-11-19T13:33:29;13.60;99.90
47825;DHT22;33589;48.242;14.676;2023-11-19T13:35:55;13.70;99.90
47825;DHT22;33589;48.242;14.676;2023-11-19T13:38:21;13.60;99.90
47825;DHT22;33589;48.242;14.676;2023-11-19T13:45:40;13.80;99.90
47825;DHT22;33589;48.242;14.676;2023-11-19T13:48:06;13.00;99.90
47825;DHT22;33589;48.242;14.676;2023-11-19T13:50:32;13.70;99.90
47825;DHT22;33589;48.242;14.676;2023-11-19T13:52:59;13.30;99.90
47825;DHT22;33589;48.242;14.676;2023-11-19T13:55:25;13.40;99.90
47825;DHT22;33589;48.242;14.676;2023-11-19T14:00:17;13.40;99.90
47825;DHT22;33589;48.242;14.676;2023-11-19T14:02:45;13.40;99.90
47825;DHT22;33589;48.242;14.676;2023-11-19T14:05:12;13.30;99.90
47825;DHT22;33589;48.242;14.676;2023-11-19T14:07:39;14.00;99.90
47825;DHT22;33589;48.242;14.676;2023-11-19T14:10:05;13.50;99.90
47825;DHT22;33589;48.242;14.676;2023-11-19T14:12:32;13.80;99.90
47825;DHT22;33589;48.242;14.676;2023-11-19T14:14:58;13.60;99.90
47825;DHT22;33589;48.242;14.676;2023-11-19T14:17:25;13.40;99.90
47825;DHT22;33589;48.242;14.676;2023-11-19T14:19:51;13.30;99.90
47825;DHT22;33589;48.242;14.676;2023-11-19T14:22:17;13.80;99.90
47825;DHT22;33589;48.242;14.676;2023-11-19T14:24:43;13.40;99.90
47825;DHT22;33589;48.242;14.676;2023-11-19T14:27:09;13.90;99.90
47825;DHT22;33589;48.242;14.676;2023-11-19T14:29:36;13.60;99.90
47825;DHT22;33589;48.242;14.676;2023-11-19T14:32:02;13.70;99.90
47825;DHT22;33589;48.242;14.676;2023-11-19T14:34:29;13.30;99.90
47825;DHT22;33589;48.242;14.676;2023-11-19T14:36:56;13.20;99.90
47825;DHT22;33589;48.242;14.676;2023-11-19T14:39:21;13.40;99.90
47825;DHT22;33589;48.242;14.676;2023-11-19T14:41:47;13.60;99.90
47825;DHT22;33589;48.242;14.676;2023-11-19T14:44:13;13.20;99.90
47825;DHT22;33589;48.242;14.676;2023-11-19T14:46:38;13.10;99.90
47825;DHT22;33589;48.242;14.676;2023-11-19T14:49:04;13.00;99.90
47825;DHT22;33589;48.242;14.676;2023-11-19T14:51:30;13.10;99.90
47825;DHT22;33589;48.242;14.676;2023-11-19T14:53:57;12.70;99.90
47825;DHT22;33589;48.242;14.676;2023-11-19T14:56:23;13.10;99.90
47825;DHT22;33589;48.242;14.676;2023-11-19T14:58:48;13.40;99.90
47825;DHT22;33589;48.242;14.676;2023-11-19T15:01:16;12.90;99.90
47825;DHT22;33589;48.242;14.676;2023-11-19T15:03:42;12.90;99.90
47825;DHT22;33589;48.242;14.676;2023-11-19T15:06:07;13.10;99.90
47825;DHT22;33589;48.242;14.676;2023-11-19T15:08:33;12.90;99.90
47825;DHT22;33589;48.242;14.676;2023-11-19T15:10:59;13.30;99.90
47825;DHT22;33589;48.242;14.676;2023-11-19T15:13:27;13.30;99.90
47825;DHT22;33589;48.242;14.676;2023-11-19T15:18:21;13.20;99.90
47825;DHT22;33589;48.242;14.676;2023-11-19T15:20:46;13.00;99.90
47825;DHT22;33589;48.242;14.676;2023-11-19T15:23:13;13.20;99.90
47825;DHT22;33589;48.242;14.676;2023-11-19T15:28:05;13.30;99.90
47825;DHT22;33589;48.242;14.676;2023-11-19T15:30:31;12.70;99.90
47825;DHT22;33589;48.242;14.676;2023-11-19T15:32:56;13.00;99.90
47825;DHT22;33589;48.242;14.676;2023-11-19T15:35:22;12.90;99.90
47825;DHT22;33589;48.242;14.676;2023-11-19T15:37:48;12.90;99.90
47825;DHT22;33589;48.242;14.676;2023-11-19T15:40:14;12.90;99.90
47825;DHT22;33589;48.242;14.676;2023-11-19T15:42:40;12.80;99.90
47825;DHT22;33589;48.242;14.676;2023-11-19T15:45:06;12.90;99.90
47825;DHT22;33589;48.242;14.676;2023-11-19T15:47:33;13.20;99.90
47825;DHT22;33589;48.242;14.676;2023-11-19T15:50:04;12.70;99.90
47825;DHT22;33589;48.242;14.676;2023-11-19T15:52:30;12.90;99.90
47825;DHT22;33589;48.242;14.676;2023-11-19T15:54:56;13.00;99.90
47825;DHT22;33589;48.242;14.676;2023-11-19T15:57:22;12.60;99.90
47825;DHT22;33589;48.242;14.676;2023-11-19T15:59:48;12.60;99.90
47825;DHT22;33589;48.242;14.676;2023-11-19T16:02:14;12.90;99.90
47825;DHT22;33589;48.242;14.676;2023-11-19T16:04:40;12.70;99.90
47825;DHT22;33589;48.242;14.676;2023-11-19T16:07:06;12.50;99.90
47825;DHT22;33589;48.242;14.676;2023-11-19T16:09:32;13.00;99.90
47825;DHT22;33589;48.242;14.676;2023-11-19T16:11:58;13.00;99.90
47825;DHT22;33589;48.242;14.676;2023-11-19T16:14:25;12.80;99.90
47825;DHT22;33589;48.242;14.676;2023-11-19T16:16:50;12.60;99.90
47825;DHT22;33589;48.242;14.676;2023-11-19T16:19:16;12.70;99.90
47825;DHT22;33589;48.242;14.676;2023-11-19T16:21:43;12.70;99.90